sensor_id;sensor_type;location;lat;lon;timestamp;P1;durP1;ratioP1;P2;durP2;ratioP2
74894;SDS011;63447;49.446;8.666;2024-01-06T00:02:08;5.43;;;1.70;;
74894;SDS011;63447;49.446;8.666;2024-01-06T00:06:59;6.50;;;1.40;;
74894;SDS011;63447;49.446;8.666;2024-01-06T00:11:54;7.28;;;1.67;;
74894;SDS011;63447;49.446;8.666;2024-01-06T00:16:44;6.20;;;1.40;;
74894;SDS011;63447;49.446;8.666;2024-01-06T00:19:10;5.22;;;1.55;;
74894;SDS011;63447;49.446;8.666;2024-01-06T00:24:01;6.57;;;1.60;;
74894;SDS011;63447;49.446;8.666;2024-01-06T00:28:52;4.80;;;1.60;;
74894;SDS011;63447;49.446;8.666;2024-01-06T00:31:17;5.38;;;2.40;;
74894;SDS011;63447;49.446;8.666;2024-01-06T00:33:43;6.80;;;2.05;;
74894;SDS011;63447;49.446;8.666;2024-01-06T00:36:08;7.97;;;2.05;;
74894;SDS011;63447;49.446;8.666;2024-01-06T00:38:36;4.93;;;2.00;;
74894;SDS011;63447;49.446;8.666;2024-01-06T00:43:27;7.38;;;2.15;;
74894;SDS011;63447;49.446;8.666;2024-01-06T00:45:52;6.93;;;2.10;;
74894;SDS011;63447;49.446;8.666;2024-01-06T00:50:43;7.18;;;2.47;;
74894;SDS011;63447;49.446;8.666;2024-01-06T00:55:33;8.00;;;2.33;;
74894;SDS011;63447;49.446;8.666;2024-01-06T00:58:01;6.57;;;2.20;;
74894;SDS011;63447;49.446;8.666;2024-01-06T01:00:29;7.82;;;1.90;;
74894;SDS011;63447;49.446;8.666;2024-01-06T01:02:55;7.35;;;2.10;;
74894;SDS011;63447;49.446;8.666;2024-01-06T01:05:20;8.73;;;2.53;;
74894;SDS011;63447;49.446;8.666;2024-01-06T01:10:11;6.20;;;1.90;;
74894;SDS011;63447;49.446;8.666;2024-01-06T01:15:01;5.80;;;2.13;;
74894;SDS011;63447;49.446;8.666;2024-01-06T01:19:55;7.78;;;2.33;;
74894;SDS011;63447;49.446;8.666;2024-01-06T01:24:45;4.45;;;1.90;;
74894;SDS011;63447;49.446;8.666;2024-01-06T01:27:13;5.53;;;2.05;;
74894;SDS011;63447;49.446;8.666;2024-01-06T01:32:04;5.07;;;1.93;;
74894;SDS011;63447;49.446;8.666;2024-01-06T01:36:55;6.60;;;1.97;;
74894;SDS011;63447;49.446;8.666;2024-01-06T01:41:48;8.50;;;2.00;;
74894;SDS011;63447;49.446;8.666;2024-01-06T01:44:13;5.05;;;1.90;;
74894;SDS011;63447;49.446;8.666;2024-01-06T01:49:04;6.63;;;2.28;;
74894;SDS011;63447;49.446;8.666;2024-01-06T01:51:33;5.10;;;1.67;;
74894;SDS011;63447;49.446;8.666;2024-01-06T01:54:04;5.03;;;1.50;;
74894;SDS011;63447;49.446;8.666;2024-01-06T01:56:31;8.32;;;2.65;;
74894;SDS011;63447;49.446;8.666;2024-01-06T01:59:05;4.88;;;2.10;;
74894;SDS011;63447;49.446;8.666;2024-01-06T02:01:34;6.57;;;2.15;;
74894;SDS011;63447;49.446;8.666;2024-01-06T02:06:25;5.97;;;2.10;;
74894;SDS011;63447;49.446;8.666;2024-01-06T02:11:21;6.55;;;2.00;;
74894;SDS011;63447;49.446;8.666;2024-01-06T02:16:11;5.20;;;2.20;;
74894;SDS011;63447;49.446;8.666;2024-01-06T02:18:37;7.40;;;3.03;;
74894;SDS011;63447;49.446;8.666;2024-01-06T02:23:28;5.88;;;2.05;;
74894;SDS011;63447;49.446;8.666;2024-01-06T02:25:54;5.53;;;2.50;;
74894;SDS011;63447;49.446;8.666;2024-01-06T02:28:19;7.20;;;2.50;;
74894;SDS011;63447;49.446;8.666;2024-01-06T02:33:10;6.93;;;2.70;;
74894;SDS011;63447;49.446;8.666;2024-01-06T02:38:01;6.55;;;2.63;;
74894;SDS011;63447;49.446;8.666;2024-01-06T02:40:26;5.50;;;2.58;;
74894;SDS011;63447;49.446;8.666;2024-01-06T02:42:52;8.02;;;3.05;;
74894;SDS011;63447;49.446;8.666;2024-01-06T02:47:45;7.73;;;3.00;;
74894;SDS011;63447;49.446;8.666;2024-01-06T02:50:11;8.52;;;2.97;;
74894;SDS011;63447;49.446;8.666;2024-01-06T02:52:38;8.00;;;3.38;;
74894;SDS011;63447;49.446;8.666;2024-01-06T02:55:04;8.90;;;3.00;;
74894;SDS011;63447;49.446;8.666;2024-01-06T02:59:58;8.90;;;3.03;;
74894;SDS011;63447;49.446;8.666;2024-01-06T03:02:25;7.70;;;3.30;;
74894;SDS011;63447;49.446;8.666;2024-01-06T03:07:21;7.47;;;2.92;;
74894;SDS011;63447;49.446;8.666;2024-01-06T03:12:12;8.60;;;3.17;;
74894;SDS011;63447;49.446;8.666;2024-01-06T03:17:03;8.23;;;3.30;;
74894;SDS011;63447;49.446;8.666;2024-01-06T03:19:31;7.70;;;2.95;;
74894;SDS011;63447;49.446;8.666;2024-01-06T03:21:58;9.95;;;3.53;;
74894;SDS011;63447;49.446;8.666;2024-01-06T03:26:50;8.23;;;2.92;;
74894;SDS011;63447;49.446;8.666;2024-01-06T03:31:44;7.78;;;2.90;;
74894;SDS011;63447;49.446;8.666;2024-01-06T03:34:12;7.53;;;3.00;;
74894;SDS011;63447;49.446;8.666;2024-01-06T03:36:40;7.22;;;3.00;;
74894;SDS011;63447;49.446;8.666;2024-01-06T03:39:06;7.43;;;3.05;;
74894;SDS011;63447;49.446;8.666;2024-01-06T03:41:32;8.73;;;3.15;;
74894;SDS011;63447;49.446;8.666;2024-01-06T03:46:23;9.17;;;2.50;;
74894;SDS011;63447;49.446;8.666;2024-01-06T03:51:14;7.22;;;2.53;;
74894;SDS011;63447;49.446;8.666;2024-01-06T03:56:05;7.32;;;2.90;;
74894;SDS011;63447;49.446;8.666;2024-01-06T03:58:35;9.55;;;3.13;;
74894;SDS011;63447;49.446;8.666;2024-01-06T04:01:00;7.95;;;2.97;;
74894;SDS011;63447;49.446;8.666;2024-01-06T04:03:28;5.50;;;2.63;;
74894;SDS011;63447;49.446;8.666;2024-01-06T04:08:19;8.40;;;2.67;;
74894;SDS011;63447;49.446;8.666;2024-01-06T04:10:44;6.17;;;2.40;;
74894;SDS011;63447;49.446;8.666;2024-01-06T04:15:35;8.80;;;2.83;;
74894;SDS011;63447;49.446;8.666;2024-01-06T04:20:27;5.57;;;2.53;;
74894;SDS011;63447;49.446;8.666;2024-01-06T04:25:20;6.90;;;2.43;;
74894;SDS011;63447;49.446;8.666;2024-01-06T04:27:46;8.15;;;2.38;;
74894;SDS011;63447;49.446;8.666;2024-01-06T04:30:12;9.52;;;3.00;;
74894;SDS011;63447;49.446;8.666;2024-01-06T04:32:38;6.35;;;2.83;;
74894;SDS011;63447;49.446;8.666;2024-01-06T04:35:04;6.68;;;2.70;;
74894;SDS011;63447;49.446;8.666;2024-01-06T04:39:54;6.77;;;2.50;;
74894;SDS011;63447;49.446;8.666;2024-01-06T04:44:48;6.28;;;2.33;;
74894;SDS011;63447;49.446;8.666;2024-01-06T04:47:16;7.03;;;2.50;;
74894;SDS011;63447;49.446;8.666;2024-01-06T04:49:42;8.55;;;2.67;;
74894;SDS011;63447;49.446;8.666;2024-01-06T04:54:33;7.80;;;2.83;;
74894;SDS011;63447;49.446;8.666;2024-01-06T04:59:24;7.60;;;2.80;;
74894;SDS011;63447;49.446;8.666;2024-01-06T05:04:17;7.97;;;2.85;;
74894;SDS011;63447;49.446;8.666;2024-01-06T05:06:45;6.20;;;2.70;;
74894;SDS011;63447;49.446;8.666;2024-01-06T05:09:15;6.43;;;3.08;;
74894;SDS011;63447;49.446;8.666;2024-01-06T05:14:08;7.85;;;2.90;;
74894;SDS011;63447;49.446;8.666;2024-01-06T05:18:58;7.80;;;3.20;;
74894;SDS011;63447;49.446;8.666;2024-01-06T05:21:26;7.25;;;2.75;;
74894;SDS011;63447;49.446;8.666;2024-01-06T05:26:17;7.43;;;2.90;;
74894;SDS011;63447;49.446;8.666;2024-01-06T05:31:10;6.60;;;2.80;;
74894;SDS011;63447;49.446;8.666;2024-01-06T05:33:35;9.32;;;3.03;;
74894;SDS011;63447;49.446;8.666;2024-01-06T05:36:03;8.77;;;2.92;;
74894;SDS011;63447;49.446;8.666;2024-01-06T05:38:28;9.50;;;3.20;;
74894;SDS011;63447;49.446;8.666;2024-01-06T05:43:21;8.40;;;3.20;;
74894;SDS011;63447;49.446;8.666;2024-01-06T05:48:12;6.73;;;3.00;;
74894;SDS011;63447;49.446;8.666;2024-01-06T05:53:04;7.35;;;2.97;;
74894;SDS011;63447;49.446;8.666;2024-01-06T05:55:30;7.07;;;2.97;;
74894;SDS011;63447;49.446;8.666;2024-01-06T06:00:21;8.07;;;3.10;;
74894;SDS011;63447;49.446;8.666;2024-01-06T06:02:49;7.25;;;2.78;;
74894;SDS011;63447;49.446;8.666;2024-01-06T06:05:14;7.78;;;3.00;;
74894;SDS011;63447;49.446;8.666;2024-01-06T06:10:06;8.80;;;3.10;;
74894;SDS011;63447;49.446;8.666;2024-01-06T06:12:33;7.78;;;3.28;;
74894;SDS011;63447;49.446;8.666;2024-01-06T06:14:58;8.80;;;2.95;;
74894;SDS011;63447;49.446;8.666;2024-01-06T06:17:27;8.45;;;2.97;;
74894;SDS011;63447;49.446;8.666;2024-01-06T06:19:52;8.63;;;3.17;;
74894;SDS011;63447;49.446;8.666;2024-01-06T06:24:44;7.38;;;3.15;;
74894;SDS011;63447;49.446;8.666;2024-01-06T06:29:34;8.83;;;3.00;;
74894;SDS011;63447;49.446;8.666;2024-01-06T06:32:03;7.40;;;2.95;;
74894;SDS011;63447;49.446;8.666;2024-01-06T06:36:53;7.47;;;2.90;;
74894;SDS011;63447;49.446;8.666;2024-01-06T06:39:23;6.35;;;2.90;;
74894;SDS011;63447;49.446;8.666;2024-01-06T06:41:52;6.50;;;2.70;;
74894;SDS011;63447;49.446;8.666;2024-01-06T06:44:20;6.90;;;2.92;;
74894;SDS011;63447;49.446;8.666;2024-01-06T06:46:45;8.30;;;3.00;;
74894;SDS011;63447;49.446;8.666;2024-01-06T06:49:10;7.93;;;2.80;;
74894;SDS011;63447;49.446;8.666;2024-01-06T06:51:36;6.47;;;2.93;;
74894;SDS011;63447;49.446;8.666;2024-01-06T06:54:11;7.28;;;2.75;;
74894;SDS011;63447;49.446;8.666;2024-01-06T06:59:01;7.60;;;2.80;;
74894;SDS011;63447;49.446;8.666;2024-01-06T07:03:52;5.80;;;2.47;;
74894;SDS011;63447;49.446;8.666;2024-01-06T07:06:20;6.75;;;2.65;;
74894;SDS011;63447;49.446;8.666;2024-01-06T07:08:47;8.60;;;3.10;;
74894;SDS011;63447;49.446;8.666;2024-01-06T07:11:13;7.45;;;2.92;;
74894;SDS011;63447;49.446;8.666;2024-01-06T07:13:40;6.07;;;2.85;;
74894;SDS011;63447;49.446;8.666;2024-01-06T07:18:33;9.82;;;3.25;;
74894;SDS011;63447;49.446;8.666;2024-01-06T07:23:23;8.10;;;3.10;;
74894;SDS011;63447;49.446;8.666;2024-01-06T07:28:14;7.17;;;2.80;;
74894;SDS011;63447;49.446;8.666;2024-01-06T07:33:04;6.63;;;2.90;;
74894;SDS011;63447;49.446;8.666;2024-01-06T07:35:33;7.35;;;3.00;;
74894;SDS011;63447;49.446;8.666;2024-01-06T07:40:24;6.40;;;2.92;;
74894;SDS011;63447;49.446;8.666;2024-01-06T07:45:16;7.70;;;3.20;;
74894;SDS011;63447;49.446;8.666;2024-01-06T07:47:42;8.73;;;3.40;;
74894;SDS011;63447;49.446;8.666;2024-01-06T07:50:07;8.68;;;3.78;;
74894;SDS011;63447;49.446;8.666;2024-01-06T07:54:59;6.70;;;2.80;;
74894;SDS011;63447;49.446;8.666;2024-01-06T07:59:49;5.00;;;2.70;;
74894;SDS011;63447;49.446;8.666;2024-01-06T08:02:15;6.68;;;3.53;;
74894;SDS011;63447;49.446;8.666;2024-01-06T08:07:06;11.00;;;5.07;;
74894;SDS011;63447;49.446;8.666;2024-01-06T08:12:02;6.03;;;2.92;;
74894;SDS011;63447;49.446;8.666;2024-01-06T08:16:53;7.93;;;2.83;;
74894;SDS011;63447;49.446;8.666;2024-01-06T08:21:44;5.90;;;2.80;;
74894;SDS011;63447;49.446;8.666;2024-01-06T08:26:34;7.30;;;3.23;;
74894;SDS011;63447;49.446;8.666;2024-01-06T08:29:03;8.43;;;3.10;;
74894;SDS011;63447;49.446;8.666;2024-01-06T08:31:28;8.55;;;3.60;;
74894;SDS011;63447;49.446;8.666;2024-01-06T08:36:22;7.95;;;3.05;;
74894;SDS011;63447;49.446;8.666;2024-01-06T08:38:50;7.60;;;3.72;;
74894;SDS011;63447;49.446;8.666;2024-01-06T08:41:16;7.53;;;3.13;;
74894;SDS011;63447;49.446;8.666;2024-01-06T08:43:43;8.30;;;3.92;;
74894;SDS011;63447;49.446;8.666;2024-01-06T08:46:11;8.50;;;3.40;;
74894;SDS011;63447;49.446;8.666;2024-01-06T08:48:37;6.63;;;3.22;;
74894;SDS011;63447;49.446;8.666;2024-01-06T08:51:05;8.35;;;3.30;;
74894;SDS011;63447;49.446;8.666;2024-01-06T08:53:30;6.25;;;3.17;;
74894;SDS011;63447;49.446;8.666;2024-01-06T08:58:21;8.53;;;4.53;;
74894;SDS011;63447;49.446;8.666;2024-01-06T09:03:12;7.13;;;3.37;;
74894;SDS011;63447;49.446;8.666;2024-01-06T09:08:03;20.30;;;10.93;;
74894;SDS011;63447;49.446;8.666;2024-01-06T09:12:54;9.63;;;4.68;;
74894;SDS011;63447;49.446;8.666;2024-01-06T09:17:45;7.50;;;3.60;;
74894;SDS011;63447;49.446;8.666;2024-01-06T09:20:13;10.13;;;4.15;;
74894;SDS011;63447;49.446;8.666;2024-01-06T09:22:41;8.32;;;4.22;;
74894;SDS011;63447;49.446;8.666;2024-01-06T09:25:06;10.30;;;4.53;;
74894;SDS011;63447;49.446;8.666;2024-01-06T09:27:34;12.23;;;4.00;;
74894;SDS011;63447;49.446;8.666;2024-01-06T09:30:00;8.40;;;3.97;;
74894;SDS011;63447;49.446;8.666;2024-01-06T09:34:50;8.60;;;3.73;;
74894;SDS011;63447;49.446;8.666;2024-01-06T09:37:18;9.82;;;3.95;;
74894;SDS011;63447;49.446;8.666;2024-01-06T09:39:43;10.07;;;4.53;;
74894;SDS011;63447;49.446;8.666;2024-01-06T09:42:08;10.40;;;4.72;;
74894;SDS011;63447;49.446;8.666;2024-01-06T09:44:36;8.32;;;3.92;;
74894;SDS011;63447;49.446;8.666;2024-01-06T09:47:06;10.10;;;4.50;;
74894;SDS011;63447;49.446;8.666;2024-01-06T09:49:36;10.68;;;5.03;;
74894;SDS011;63447;49.446;8.666;2024-01-06T09:52:04;10.98;;;4.90;;
74894;SDS011;63447;49.446;8.666;2024-01-06T09:54:39;9.38;;;3.92;;
74894;SDS011;63447;49.446;8.666;2024-01-06T09:59:39;11.07;;;3.88;;
74894;SDS011;63447;49.446;8.666;2024-01-06T10:02:07;7.90;;;3.90;;
74894;SDS011;63447;49.446;8.666;2024-01-06T10:04:33;19.70;;;9.88;;
74894;SDS011;63447;49.446;8.666;2024-01-06T10:07:01;11.60;;;4.95;;
74894;SDS011;63447;49.446;8.666;2024-01-06T10:09:28;9.48;;;4.40;;
74894;SDS011;63447;49.446;8.666;2024-01-06T10:11:56;8.18;;;4.07;;
74894;SDS011;63447;49.446;8.666;2024-01-06T10:14:25;9.40;;;4.15;;
74894;SDS011;63447;49.446;8.666;2024-01-06T10:16:53;8.15;;;3.92;;
74894;SDS011;63447;49.446;8.666;2024-01-06T10:19:22;9.38;;;3.90;;
74894;SDS011;63447;49.446;8.666;2024-01-06T10:21:48;9.57;;;4.32;;
74894;SDS011;63447;49.446;8.666;2024-01-06T10:24:14;8.70;;;4.38;;
74894;SDS011;63447;49.446;8.666;2024-01-06T10:26:39;12.63;;;4.35;;
74894;SDS011;63447;49.446;8.666;2024-01-06T10:29:07;12.80;;;4.45;;
74894;SDS011;63447;49.446;8.666;2024-01-06T10:31:36;9.68;;;4.40;;
74894;SDS011;63447;49.446;8.666;2024-01-06T10:34:01;11.18;;;4.68;;
74894;SDS011;63447;49.446;8.666;2024-01-06T10:36:28;11.85;;;4.60;;
74894;SDS011;63447;49.446;8.666;2024-01-06T10:38:53;9.25;;;4.22;;
74894;SDS011;63447;49.446;8.666;2024-01-06T10:41:22;10.25;;;4.78;;
74894;SDS011;63447;49.446;8.666;2024-01-06T10:43:49;10.10;;;4.20;;
74894;SDS011;63447;49.446;8.666;2024-01-06T10:46:16;8.73;;;4.22;;
74894;SDS011;63447;49.446;8.666;2024-01-06T10:48:44;7.85;;;3.83;;
74894;SDS011;63447;49.446;8.666;2024-01-06T10:51:11;7.95;;;4.10;;
74894;SDS011;63447;49.446;8.666;2024-01-06T10:53:39;11.00;;;5.38;;
74894;SDS011;63447;49.446;8.666;2024-01-06T10:56:06;9.60;;;5.07;;
74894;SDS011;63447;49.446;8.666;2024-01-06T10:58:35;9.77;;;4.35;;
74894;SDS011;63447;49.446;8.666;2024-01-06T11:01:08;9.48;;;4.45;;
74894;SDS011;63447;49.446;8.666;2024-01-06T11:03:34;8.85;;;4.50;;
74894;SDS011;63447;49.446;8.666;2024-01-06T11:06:02;11.00;;;4.78;;
74894;SDS011;63447;49.446;8.666;2024-01-06T11:08:36;11.18;;;5.07;;
74894;SDS011;63447;49.446;8.666;2024-01-06T11:11:14;10.80;;;5.57;;
74894;SDS011;63447;49.446;8.666;2024-01-06T11:13:41;11.73;;;5.07;;
74894;SDS011;63447;49.446;8.666;2024-01-06T11:16:08;12.60;;;5.18;;
74894;SDS011;63447;49.446;8.666;2024-01-06T11:18:39;11.93;;;5.32;;
74894;SDS011;63447;49.446;8.666;2024-01-06T11:24:12;8.77;;;5.00;;
74894;SDS011;63447;49.446;8.666;2024-01-06T11:26:42;10.48;;;5.50;;
74894;SDS011;63447;49.446;8.666;2024-01-06T11:29:09;8.80;;;4.45;;
74894;SDS011;63447;49.446;8.666;2024-01-06T11:31:36;9.35;;;4.95;;
74894;SDS011;63447;49.446;8.666;2024-01-06T11:34:17;9.55;;;4.85;;
74894;SDS011;63447;49.446;8.666;2024-01-06T11:36:44;10.10;;;5.43;;
74894;SDS011;63447;49.446;8.666;2024-01-06T11:42:03;9.98;;;5.07;;
74894;SDS011;63447;49.446;8.666;2024-01-06T11:44:28;10.43;;;5.00;;
74894;SDS011;63447;49.446;8.666;2024-01-06T11:46:56;12.05;;;5.47;;
74894;SDS011;63447;49.446;8.666;2024-01-06T11:49:27;11.93;;;5.90;;
74894;SDS011;63447;49.446;8.666;2024-01-06T11:51:56;10.68;;;5.32;;
74894;SDS011;63447;49.446;8.666;2024-01-06T11:54:22;9.88;;;5.55;;
74894;SDS011;63447;49.446;8.666;2024-01-06T11:56:48;9.68;;;5.55;;
74894;SDS011;63447;49.446;8.666;2024-01-06T11:59:13;11.20;;;5.82;;
74894;SDS011;63447;49.446;8.666;2024-01-06T12:01:39;10.50;;;5.03;;
74894;SDS011;63447;49.446;8.666;2024-01-06T12:04:05;9.93;;;5.15;;
74894;SDS011;63447;49.446;8.666;2024-01-06T12:06:35;10.95;;;6.03;;
74894;SDS011;63447;49.446;8.666;2024-01-06T12:09:06;11.23;;;6.07;;
74894;SDS011;63447;49.446;8.666;2024-01-06T12:11:38;12.05;;;5.90;;
74894;SDS011;63447;49.446;8.666;2024-01-06T12:14:05;11.40;;;6.20;;
74894;SDS011;63447;49.446;8.666;2024-01-06T12:16:31;10.35;;;5.57;;
74894;SDS011;63447;49.446;8.666;2024-01-06T12:18:57;11.07;;;5.68;;
74894;SDS011;63447;49.446;8.666;2024-01-06T12:21:26;11.10;;;5.68;;
74894;SDS011;63447;49.446;8.666;2024-01-06T12:23:52;11.45;;;5.75;;
74894;SDS011;63447;49.446;8.666;2024-01-06T12:26:17;11.35;;;6.18;;
74894;SDS011;63447;49.446;8.666;2024-01-06T12:28:46;14.95;;;6.15;;
74894;SDS011;63447;49.446;8.666;2024-01-06T12:31:15;9.65;;;5.93;;
74894;SDS011;63447;49.446;8.666;2024-01-06T12:33:41;9.65;;;5.88;;
74894;SDS011;63447;49.446;8.666;2024-01-06T12:36:09;11.73;;;5.40;;
74894;SDS011;63447;49.446;8.666;2024-01-06T12:38:36;11.02;;;5.97;;
74894;SDS011;63447;49.446;8.666;2024-01-06T12:41:03;10.00;;;5.28;;
74894;SDS011;63447;49.446;8.666;2024-01-06T12:43:31;10.10;;;5.47;;
74894;SDS011;63447;49.446;8.666;2024-01-06T12:45:56;9.15;;;5.30;;
74894;SDS011;63447;49.446;8.666;2024-01-06T12:48:23;12.60;;;5.82;;
74894;SDS011;63447;49.446;8.666;2024-01-06T12:50:48;13.13;;;6.72;;
74894;SDS011;63447;49.446;8.666;2024-01-06T12:53:14;16.97;;;8.60;;
74894;SDS011;63447;49.446;8.666;2024-01-06T12:55:43;12.93;;;6.68;;
74894;SDS011;63447;49.446;8.666;2024-01-06T12:58:08;10.77;;;5.60;;
74894;SDS011;63447;49.446;8.666;2024-01-06T13:00:34;12.57;;;6.35;;
74894;SDS011;63447;49.446;8.666;2024-01-06T13:02:59;15.53;;;9.63;;
74894;SDS011;63447;49.446;8.666;2024-01-06T13:05:27;11.20;;;6.07;;
74894;SDS011;63447;49.446;8.666;2024-01-06T13:07:53;13.70;;;6.82;;
74894;SDS011;63447;49.446;8.666;2024-01-06T13:10:18;10.57;;;5.95;;
74894;SDS011;63447;49.446;8.666;2024-01-06T13:12:44;21.90;;;13.35;;
74894;SDS011;63447;49.446;8.666;2024-01-06T13:15:11;40.08;;;22.88;;
74894;SDS011;63447;49.446;8.666;2024-01-06T13:17:37;14.30;;;7.17;;
74894;SDS011;63447;49.446;8.666;2024-01-06T13:20:05;13.40;;;6.13;;
74894;SDS011;63447;49.446;8.666;2024-01-06T13:22:31;13.65;;;6.82;;
74894;SDS011;63447;49.446;8.666;2024-01-06T13:24:56;13.20;;;7.00;;
74894;SDS011;63447;49.446;8.666;2024-01-06T13:27:22;14.02;;;8.07;;
74894;SDS011;63447;49.446;8.666;2024-01-06T13:29:49;13.02;;;7.25;;
74894;SDS011;63447;49.446;8.666;2024-01-06T13:32:17;11.02;;;5.45;;
74894;SDS011;63447;49.446;8.666;2024-01-06T13:34:48;10.98;;;6.20;;
74894;SDS011;63447;49.446;8.666;2024-01-06T13:37:19;12.57;;;6.35;;
74894;SDS011;63447;49.446;8.666;2024-01-06T13:39:44;10.32;;;5.85;;
74894;SDS011;63447;49.446;8.666;2024-01-06T13:42:12;11.33;;;5.67;;
74894;SDS011;63447;49.446;8.666;2024-01-06T13:44:37;11.93;;;6.65;;
74894;SDS011;63447;49.446;8.666;2024-01-06T13:47:03;15.93;;;8.73;;
74894;SDS011;63447;49.446;8.666;2024-01-06T13:49:28;14.75;;;6.70;;
74894;SDS011;63447;49.446;8.666;2024-01-06T13:51:54;12.88;;;7.35;;
74894;SDS011;63447;49.446;8.666;2024-01-06T13:54:23;18.27;;;10.13;;
74894;SDS011;63447;49.446;8.666;2024-01-06T13:56:48;13.63;;;8.20;;
74894;SDS011;63447;49.446;8.666;2024-01-06T13:59:17;12.63;;;7.32;;
74894;SDS011;63447;49.446;8.666;2024-01-06T14:01:47;15.73;;;9.30;;
74894;SDS011;63447;49.446;8.666;2024-01-06T14:04:13;17.00;;;9.63;;
74894;SDS011;63447;49.446;8.666;2024-01-06T14:06:41;20.95;;;11.35;;
74894;SDS011;63447;49.446;8.666;2024-01-06T14:09:07;14.75;;;7.40;;
74894;SDS011;63447;49.446;8.666;2024-01-06T14:11:33;12.13;;;6.63;;
74894;SDS011;63447;49.446;8.666;2024-01-06T14:14:01;13.30;;;7.38;;
74894;SDS011;63447;49.446;8.666;2024-01-06T14:16:30;14.98;;;8.63;;
74894;SDS011;63447;49.446;8.666;2024-01-06T14:18:58;11.73;;;6.43;;
74894;SDS011;63447;49.446;8.666;2024-01-06T14:21:27;12.50;;;6.22;;
74894;SDS011;63447;49.446;8.666;2024-01-06T14:23:53;13.35;;;6.70;;
74894;SDS011;63447;49.446;8.666;2024-01-06T14:26:18;12.67;;;6.27;;
74894;SDS011;63447;49.446;8.666;2024-01-06T14:28:48;13.10;;;6.40;;
74894;SDS011;63447;49.446;8.666;2024-01-06T14:31:14;10.33;;;6.23;;
74894;SDS011;63447;49.446;8.666;2024-01-06T14:33:42;12.63;;;6.80;;
74894;SDS011;63447;49.446;8.666;2024-01-06T14:36:07;10.10;;;5.87;;
74894;SDS011;63447;49.446;8.666;2024-01-06T14:38:33;11.18;;;6.07;;
74894;SDS011;63447;49.446;8.666;2024-01-06T14:40:58;10.37;;;6.07;;
74894;SDS011;63447;49.446;8.666;2024-01-06T14:43:24;11.98;;;6.13;;
74894;SDS011;63447;49.446;8.666;2024-01-06T14:45:49;10.85;;;5.95;;
74894;SDS011;63447;49.446;8.666;2024-01-06T14:48:14;11.48;;;6.45;;
74894;SDS011;63447;49.446;8.666;2024-01-06T14:50:40;12.43;;;6.73;;
74894;SDS011;63447;49.446;8.666;2024-01-06T14:53:05;10.82;;;6.53;;
74894;SDS011;63447;49.446;8.666;2024-01-06T14:55:31;11.23;;;6.70;;
74894;SDS011;63447;49.446;8.666;2024-01-06T14:57:59;13.47;;;7.30;;
74894;SDS011;63447;49.446;8.666;2024-01-06T15:00:24;18.40;;;10.57;;
74894;SDS011;63447;49.446;8.666;2024-01-06T15:02:50;14.63;;;7.97;;
74894;SDS011;63447;49.446;8.666;2024-01-06T15:05:15;12.97;;;7.27;;
74894;SDS011;63447;49.446;8.666;2024-01-06T15:07:43;13.00;;;8.43;;
74894;SDS011;63447;49.446;8.666;2024-01-06T15:10:08;14.52;;;9.15;;
74894;SDS011;63447;49.446;8.666;2024-01-06T15:12:35;12.82;;;7.97;;
74894;SDS011;63447;49.446;8.666;2024-01-06T15:15:00;13.38;;;8.02;;
74894;SDS011;63447;49.446;8.666;2024-01-06T15:17:33;15.07;;;7.88;;
74894;SDS011;63447;49.446;8.666;2024-01-06T15:19:58;16.27;;;9.52;;
74894;SDS011;63447;49.446;8.666;2024-01-06T15:22:23;14.87;;;8.10;;
74894;SDS011;63447;49.446;8.666;2024-01-06T15:24:49;16.85;;;9.38;;
74894;SDS011;63447;49.446;8.666;2024-01-06T15:27:18;16.65;;;9.68;;
74894;SDS011;63447;49.446;8.666;2024-01-06T15:29:46;17.60;;;10.82;;
74894;SDS011;63447;49.446;8.666;2024-01-06T15:32:11;18.30;;;10.55;;
74894;SDS011;63447;49.446;8.666;2024-01-06T15:34:39;14.93;;;8.57;;
74894;SDS011;63447;49.446;8.666;2024-01-06T15:37:04;12.27;;;7.63;;
74894;SDS011;63447;49.446;8.666;2024-01-06T15:39:29;15.70;;;8.70;;
74894;SDS011;63447;49.446;8.666;2024-01-06T15:41:55;14.63;;;7.93;;
74894;SDS011;63447;49.446;8.666;2024-01-06T15:44:20;15.18;;;9.35;;
74894;SDS011;63447;49.446;8.666;2024-01-06T15:46:46;18.83;;;11.13;;
74894;SDS011;63447;49.446;8.666;2024-01-06T15:49:11;15.52;;;9.82;;
74894;SDS011;63447;49.446;8.666;2024-01-06T15:51:36;16.65;;;9.27;;
74894;SDS011;63447;49.446;8.666;2024-01-06T15:54:05;14.15;;;7.97;;
74894;SDS011;63447;49.446;8.666;2024-01-06T15:56:30;14.73;;;8.85;;
74894;SDS011;63447;49.446;8.666;2024-01-06T15:58:57;14.60;;;8.40;;
74894;SDS011;63447;49.446;8.666;2024-01-06T16:01:23;12.98;;;7.88;;
74894;SDS011;63447;49.446;8.666;2024-01-06T16:03:51;12.43;;;7.43;;
74894;SDS011;63447;49.446;8.666;2024-01-06T16:06:16;12.50;;;6.68;;
74894;SDS011;63447;49.446;8.666;2024-01-06T16:08:41;15.27;;;8.10;;
74894;SDS011;63447;49.446;8.666;2024-01-06T16:11:07;12.15;;;7.75;;
74894;SDS011;63447;49.446;8.666;2024-01-06T16:13:33;18.48;;;10.55;;
74894;SDS011;63447;49.446;8.666;2024-01-06T16:15:58;14.13;;;7.80;;
74894;SDS011;63447;49.446;8.666;2024-01-06T16:20:49;17.63;;;9.63;;
74894;SDS011;63447;49.446;8.666;2024-01-06T16:23:19;16.83;;;9.82;;
74894;SDS011;63447;49.446;8.666;2024-01-06T16:25:48;17.40;;;9.70;;
74894;SDS011;63447;49.446;8.666;2024-01-06T16:28:14;16.00;;;8.90;;
74894;SDS011;63447;49.446;8.666;2024-01-06T16:30:41;23.75;;;14.70;;
74894;SDS011;63447;49.446;8.666;2024-01-06T16:33:09;20.40;;;11.05;;
74894;SDS011;63447;49.446;8.666;2024-01-06T16:35:38;15.05;;;9.25;;
74894;SDS011;63447;49.446;8.666;2024-01-06T16:38:04;15.45;;;8.85;;
74894;SDS011;63447;49.446;8.666;2024-01-06T16:40:30;16.60;;;9.87;;
74894;SDS011;63447;49.446;8.666;2024-01-06T16:42:56;15.25;;;9.30;;
74894;SDS011;63447;49.446;8.666;2024-01-06T16:45:24;15.63;;;9.00;;
74894;SDS011;63447;49.446;8.666;2024-01-06T16:47:49;15.05;;;8.90;;
74894;SDS011;63447;49.446;8.666;2024-01-06T16:50:14;16.70;;;9.02;;
74894;SDS011;63447;49.446;8.666;2024-01-06T16:52:43;16.98;;;9.63;;
74894;SDS011;63447;49.446;8.666;2024-01-06T16:55:10;15.05;;;8.95;;
74894;SDS011;63447;49.446;8.666;2024-01-06T16:57:36;15.70;;;8.65;;
74894;SDS011;63447;49.446;8.666;2024-01-06T17:00:01;14.43;;;7.87;;
74894;SDS011;63447;49.446;8.666;2024-01-06T17:02:29;15.57;;;8.82;;
74894;SDS011;63447;49.446;8.666;2024-01-06T17:04:55;15.48;;;8.57;;
74894;SDS011;63447;49.446;8.666;2024-01-06T17:07:25;14.25;;;8.80;;
74894;SDS011;63447;49.446;8.666;2024-01-06T17:09:55;13.95;;;8.60;;
74894;SDS011;63447;49.446;8.666;2024-01-06T17:12:25;14.35;;;7.85;;
74894;SDS011;63447;49.446;8.666;2024-01-06T17:14:53;15.80;;;8.55;;
74894;SDS011;63447;49.446;8.666;2024-01-06T17:17:18;14.32;;;8.02;;
74894;SDS011;63447;49.446;8.666;2024-01-06T17:19:46;13.38;;;8.30;;
74894;SDS011;63447;49.446;8.666;2024-01-06T17:22:16;17.83;;;8.15;;
74894;SDS011;63447;49.446;8.666;2024-01-06T17:24:46;15.02;;;8.25;;
74894;SDS011;63447;49.446;8.666;2024-01-06T17:27:14;15.50;;;7.60;;
74894;SDS011;63447;49.446;8.666;2024-01-06T17:29:39;16.15;;;8.93;;
74894;SDS011;63447;49.446;8.666;2024-01-06T17:34:33;18.10;;;9.65;;
74894;SDS011;63447;49.446;8.666;2024-01-06T17:36:59;18.27;;;10.73;;
74894;SDS011;63447;49.446;8.666;2024-01-06T17:39:27;16.40;;;8.55;;
74894;SDS011;63447;49.446;8.666;2024-01-06T17:41:53;17.83;;;9.60;;
74894;SDS011;63447;49.446;8.666;2024-01-06T17:44:18;13.10;;;8.00;;
74894;SDS011;63447;49.446;8.666;2024-01-06T17:46:46;19.00;;;9.68;;
74894;SDS011;63447;49.446;8.666;2024-01-06T17:49:11;16.23;;;9.52;;
74894;SDS011;63447;49.446;8.666;2024-01-06T17:51:37;20.65;;;10.10;;
74894;SDS011;63447;49.446;8.666;2024-01-06T17:54:09;20.38;;;10.80;;